createdAt,value
2022-12-18T00:00:53.994Z,91.35
2022-12-18T00:03:21.731Z,91.32
2022-12-18T00:05:50.143Z,91.17
2022-12-18T00:08:18.783Z,91.36
2022-12-18T00:10:47.209Z,90.93
2022-12-18T00:13:14.840Z,90.64
2022-12-18T00:15:43.866Z,90.57
2022-12-18T00:18:13.808Z,90.48
2022-12-18T00:20:43.668Z,90.13
2022-12-18T00:23:11.317Z,90.29
2022-12-18T00:25:39.019Z,90.07
2022-12-18T00:28:06.780Z,90.20
2022-12-18T00:30:34.383Z,89.73
2022-12-18T00:33:03.353Z,89.73
2022-12-18T00:35:30.941Z,89.58
2022-12-18T00:37:58.576Z,89.32
2022-12-18T00:40:26.237Z,89.42
2022-12-18T00:42:59.019Z,89.39
2022-12-18T00:45:27.839Z,89.25
2022-12-18T00:47:55.960Z,89.54
2022-12-18T00:50:26.431Z,89.63
2022-12-18T00:52:54.410Z,89.84
2022-12-18T00:55:22.022Z,89.83
2022-12-18T00:57:49.687Z,89.46
2022-12-18T01:00:17.663Z,89.30
2022-12-18T01:02:45.437Z,89.68
2022-12-18T01:05:15.211Z,89.64
2022-12-18T01:07:44.174Z,89.68
2022-12-18T01:10:13.416Z,89.84
2022-12-18T01:12:41.400Z,89.95
2022-12-18T01:15:10.267Z,90.36
2022-12-18T01:17:38.026Z,89.78
2022-12-18T01:20:07.185Z,89.92
2022-12-18T01:22:38.370Z,90.24
2022-12-18T01:25:08.101Z,89.71
2022-12-18T01:27:36.097Z,89.65
2022-12-18T01:30:04.200Z,89.81
2022-12-18T01:32:32.398Z,89.88
2022-12-18T01:35:00.068Z,89.70
2022-12-18T01:37:27.681Z,89.99
2022-12-18T01:39:56.490Z,89.83
2022-12-18T01:42:26.467Z,90.08
2022-12-18T01:44:58.404Z,90.37
2022-12-18T01:47:29.115Z,90.35
2022-12-18T01:49:58.681Z,90.91
2022-12-18T01:52:28.052Z,90.76
2022-12-18T01:54:57.360Z,90.47
2022-12-18T01:57:27.617Z,90.47
2022-12-18T01:59:57.698Z,90.57
2022-12-18T02:02:25.476Z,90.96
2022-12-18T02:04:53.225Z,90.73
2022-12-18T02:07:28.044Z,90.48
2022-12-18T02:10:01.356Z,91.50
2022-12-18T02:12:38.447Z,91.28
2022-12-18T02:15:14.691Z,91.41
2022-12-18T02:17:46.172Z,91.83
2022-12-18T02:20:19.843Z,92.08
2022-12-18T02:23:00.384Z,91.77
2022-12-18T02:25:42.391Z,91.96
2022-12-18T02:28:15.526Z,91.99
2022-12-18T02:30:44.622Z,91.84
2022-12-18T02:33:14.054Z,92.04
2022-12-18T02:35:43.770Z,92.11
2022-12-18T02:38:13.205Z,91.62
2022-12-18T02:40:42.464Z,91.79
2022-12-18T02:43:13.450Z,91.48
2022-12-18T02:45:50.091Z,91.50
2022-12-18T02:48:19.765Z,91.66
2022-12-18T02:50:53.917Z,92.33
2022-12-18T02:53:29.485Z,92.64
2022-12-18T02:56:04.602Z,93.52
2022-12-18T02:58:43.404Z,94.11
2022-12-18T03:01:18.617Z,94.48
2022-12-18T03:03:51.238Z,95.22
2022-12-18T03:06:24.998Z,94.81
2022-12-18T03:08:57.945Z,94.76
2022-12-18T03:11:43.603Z,95.14
2022-12-18T03:14:17.425Z,95.03
2022-12-18T03:16:46.845Z,94.52
2022-12-18T03:19:18.571Z,94.74
2022-12-18T03:21:50.140Z,94.48
2022-12-18T03:24:19.136Z,94.43
2022-12-18T03:26:51.595Z,94.40
2022-12-18T03:29:25.422Z,94.61
2022-12-18T03:32:02.615Z,94.66
2022-12-18T03:34:34.501Z,94.94
2022-12-18T03:37:05.089Z,94.48
2022-12-18T03:39:33.002Z,93.80
2022-12-18T03:42:09.294Z,93.67
2022-12-18T03:44:44.136Z,93.47
2022-12-18T03:47:17.329Z,93.76
2022-12-18T03:49:52.159Z,93.58
2022-12-18T03:52:25.747Z,93.62
2022-12-18T03:54:56.015Z,93.31
2022-12-18T03:57:28.103Z,93.61
2022-12-18T04:00:01.692Z,93.59
2022-12-18T04:02:31.006Z,93.30
2022-12-18T04:05:03.436Z,93.71
2022-12-18T04:07:31.302Z,93.54
2022-12-18T04:10:02.885Z,93.66
2022-12-18T04:12:31.688Z,93.61
2022-12-18T04:15:00.722Z,93.32
2022-12-18T04:17:28.363Z,93.59
2022-12-18T04:19:56.008Z,93.38
2022-12-18T04:22:23.666Z,93.03
2022-12-18T04:24:51.367Z,92.85
2022-12-18T04:27:19.021Z,92.61
2022-12-18T04:29:46.890Z,92.88
2022-12-18T04:32:16.005Z,92.25
2022-12-18T04:34:43.579Z,92.01
2022-12-18T04:37:11.424Z,91.36
2022-12-18T04:39:39.049Z,90.93
2022-12-18T04:42:06.762Z,90.50
2022-12-18T04:44:34.370Z,90.77
2022-12-18T04:47:01.977Z,90.16
2022-12-18T04:49:30.916Z,90.41
2022-12-18T04:51:58.558Z,90.56
2022-12-18T04:54:26.438Z,90.69
2022-12-18T04:56:54.029Z,91.02
2022-12-18T04:59:22.911Z,91.45
2022-12-18T05:01:51.232Z,91.17
2022-12-18T05:04:18.986Z,91.51
2022-12-18T05:06:48.952Z,91.71
2022-12-18T05:09:16.720Z,91.34
2022-12-18T05:11:44.792Z,91.23
2022-12-18T05:14:13.987Z,91.09
2022-12-18T05:16:41.941Z,90.85
2022-12-18T05:19:09.543Z,91.15
2022-12-18T05:21:37.305Z,91.13
2022-12-18T05:24:07.008Z,90.90
2022-12-18T05:26:34.681Z,91.31
2022-12-18T05:29:02.354Z,91.12
2022-12-18T05:31:32.403Z,91.32
2022-12-18T05:34:03.763Z,90.96
2022-12-18T05:36:31.493Z,91.27
2022-12-18T05:38:59.226Z,90.93
2022-12-18T05:41:28.222Z,90.71
2022-12-18T05:43:55.839Z,90.60
2022-12-18T05:46:23.535Z,90.69
2022-12-18T05:48:51.782Z,90.35
2022-12-18T05:51:21.898Z,90.40
2022-12-18T05:53:50.052Z,90.54
2022-12-18T05:56:20.375Z,89.95
2022-12-18T05:58:49.677Z,90.09
2022-12-18T06:01:19.993Z,90.15
2022-12-18T06:03:48.011Z,89.80
2022-12-18T06:06:17.073Z,89.88
2022-12-18T06:08:46.646Z,89.55
2022-12-18T06:11:15.174Z,89.19
2022-12-18T06:13:42.986Z,89.16
2022-12-18T06:16:12.191Z,89.07
2022-12-18T06:18:40.129Z,89.05
2022-12-18T06:21:07.772Z,89.19
2022-12-18T06:23:35.565Z,89.03
2022-12-18T06:26:06.389Z,89.06
2022-12-18T06:28:34.049Z,88.92
2022-12-18T06:31:01.885Z,89.23
2022-12-18T06:33:31.065Z,89.19
2022-12-18T06:36:02.664Z,89.18
2022-12-18T06:38:30.281Z,89.31
2022-12-18T06:40:57.869Z,89.12
2022-12-18T06:43:25.592Z,89.11
2022-12-18T06:45:53.981Z,88.96
2022-12-18T06:48:21.931Z,89.45
2022-12-18T06:50:50.877Z,89.36
2022-12-18T06:53:18.504Z,89.32
2022-12-18T06:55:46.112Z,89.77
2022-12-18T06:58:13.778Z,89.30
2022-12-18T07:00:41.498Z,89.34
2022-12-18T07:03:09.280Z,89.04
2022-12-18T07:05:42.042Z,89.10
2022-12-18T07:08:11.014Z,89.07
2022-12-18T07:10:47.440Z,89.32
2022-12-18T07:13:15.889Z,89.15
2022-12-18T07:15:43.674Z,89.32
2022-12-18T07:18:11.525Z,89.41
2022-12-18T07:20:39.441Z,89.37
2022-12-18T07:23:07.432Z,89.49
2022-12-18T07:25:37.248Z,89.24
2022-12-18T07:28:05.537Z,89.38
2022-12-18T07:30:33.176Z,88.93
2022-12-18T07:33:00.819Z,88.94
2022-12-18T07:35:28.430Z,89.17
2022-12-18T07:37:56.183Z,88.87
2022-12-18T07:40:23.783Z,88.69
2022-12-18T07:42:52.743Z,89.18
2022-12-18T07:45:20.438Z,89.44
2022-12-18T07:47:48.048Z,89.39
2022-12-18T07:50:15.777Z,89.49
2022-12-18T07:52:43.554Z,89.44
2022-12-18T07:55:11.145Z,89.44
2022-12-18T07:57:50.366Z,89.56
2022-12-18T08:00:21.436Z,89.68
2022-12-18T08:02:49.167Z,89.78
2022-12-18T08:05:17.078Z,89.97
2022-12-18T08:07:44.644Z,90.55
2022-12-18T08:10:12.242Z,90.51
2022-12-18T08:12:39.899Z,90.63
2022-12-18T08:15:08.933Z,90.43
2022-12-18T08:17:37.976Z,90.66
2022-12-18T08:20:05.970Z,90.66
2022-12-18T08:22:36.220Z,91.05
2022-12-18T08:25:04.664Z,91.05
2022-12-18T08:27:32.971Z,91.23
2022-12-18T08:30:00.759Z,91.11
2022-12-18T08:32:29.930Z,91.27
2022-12-18T08:34:58.888Z,91.50
2022-12-18T08:37:26.966Z,91.29
2022-12-18T08:39:54.564Z,91.96
2022-12-18T08:42:39.754Z,92.29
2022-12-18T08:45:08.362Z,92.38
2022-12-18T08:47:35.974Z,92.60
2022-12-18T08:50:05.379Z,92.56
2022-12-18T08:52:34.079Z,92.86
2022-12-18T08:55:01.693Z,92.93
2022-12-18T08:57:29.492Z,93.20
2022-12-18T08:59:57.130Z,93.26
2022-12-18T09:02:25.062Z,93.25
2022-12-18T09:04:57.406Z,93.37
2022-12-18T09:07:26.805Z,93.54
2022-12-18T09:09:54.424Z,93.43
2022-12-18T09:12:22.037Z,93.61
2022-12-18T09:14:49.623Z,93.48
2022-12-18T09:17:17.332Z,93.90
2022-12-18T09:19:45.233Z,94.35
2022-12-18T09:22:12.838Z,94.29
2022-12-18T09:24:41.819Z,94.42
2022-12-18T09:27:09.649Z,94.34
2022-12-18T09:29:37.540Z,94.40
2022-12-18T09:32:05.660Z,94.04
2022-12-18T09:34:33.675Z,93.80
2022-12-18T09:37:01.321Z,93.50
2022-12-18T09:39:28.960Z,93.24
2022-12-18T09:41:59.871Z,93.14
2022-12-18T09:44:31.752Z,93.17
2022-12-18T09:47:10.550Z,93.33
2022-12-18T09:49:42.580Z,93.45
2022-12-18T09:52:15.872Z,93.31
2022-12-18T09:54:51.991Z,93.40
2022-12-18T09:57:25.435Z,93.55
2022-12-18T09:59:57.396Z,93.23
2022-12-18T10:02:26.874Z,93.43
2022-12-18T10:05:13.709Z,93.48
2022-12-18T10:07:50.638Z,93.62
2022-12-18T10:10:29.394Z,93.35
2022-12-18T10:13:09.364Z,93.49
2022-12-18T10:15:46.834Z,93.56
2022-12-18T10:18:27.290Z,93.74
2022-12-18T10:20:59.896Z,93.74
2022-12-18T10:23:34.500Z,93.42
2022-12-18T10:26:05.292Z,91.63
2022-12-18T10:28:40.232Z,91.74
2022-12-18T10:31:08.420Z,90.29
2022-12-18T10:33:36.558Z,88.46
2022-12-18T10:36:04.494Z,87.62
2022-12-18T10:38:33.804Z,86.88
2022-12-18T10:41:03.687Z,85.80
2022-12-18T10:43:33.281Z,86.80
2022-12-18T10:46:15.398Z,86.46
2022-12-18T10:48:52.197Z,86.45
2022-12-18T10:51:26.040Z,84.77
2022-12-18T10:53:58.266Z,82.31
2022-12-18T10:56:27.952Z,79.89
2022-12-18T10:59:01.314Z,82.06
2022-12-18T11:01:46.958Z,80.78
2022-12-18T11:04:19.923Z,81.59
2022-12-18T11:06:59.778Z,81.96
2022-12-18T11:09:28.833Z,81.68
2022-12-18T11:12:00.003Z,82.37
2022-12-18T11:14:30.199Z,83.04
2022-12-18T11:19:55.203Z,83.69
2022-12-18T11:22:27.313Z,83.29
2022-12-18T11:25:30.336Z,84.26
2022-12-18T11:27:50.449Z,82.93
2022-12-18T11:30:24.545Z,80.28
2022-12-18T11:32:58.415Z,78.90
2022-12-18T11:35:36.835Z,79.19
2022-12-18T11:38:12.783Z,79.58
2022-12-18T11:40:44.056Z,80.14
2022-12-18T11:43:16.375Z,80.54
2022-12-18T11:45:51.637Z,81.83
2022-12-18T11:48:26.645Z,83.38
2022-12-18T11:50:55.878Z,83.78
2022-12-18T11:53:24.208Z,83.94
2022-12-18T11:56:04.360Z,83.17
2022-12-18T11:58:44.953Z,75.58
2022-12-18T12:01:20.588Z,75.58
2022-12-18T12:04:16.793Z,72.59
2022-12-18T12:07:03.084Z,76.44
2022-12-18T12:09:43.219Z,77.14
2022-12-18T12:12:27.759Z,77.04
2022-12-18T12:15:06.965Z,78.29
2022-12-18T12:17:42.869Z,77.61
2022-12-18T12:20:21.613Z,75.55
2022-12-18T12:23:00.442Z,74.68
2022-12-18T12:25:36.120Z,75.94
2022-12-18T12:28:19.916Z,76.95
2022-12-18T12:30:57.249Z,77.70
2022-12-18T12:33:38.563Z,76.34
2022-12-18T12:36:15.253Z,76.05
2022-12-18T12:38:51.577Z,74.80
2022-12-18T12:41:40.293Z,76.17
2022-12-18T12:44:11.126Z,77.05
2022-12-18T12:46:42.719Z,74.58
2022-12-18T12:49:15.367Z,69.68
2022-12-18T12:51:52.094Z,65.70
2022-12-18T12:54:25.342Z,68.39
2022-12-18T12:56:59.856Z,68.32
2022-12-18T12:59:37.023Z,66.81
2022-12-18T13:02:14.061Z,65.32
2022-12-18T13:04:49.404Z,62.72
2022-12-18T13:07:25.985Z,62.84
2022-12-18T13:10:24.907Z,62.68
2022-12-18T13:12:58.829Z,61.21
2022-12-18T13:15:32.766Z,60.08
2022-12-18T13:18:15.502Z,60.85
2022-12-18T13:20:52.457Z,61.95
2022-12-18T13:23:31.792Z,61.65
2022-12-18T13:26:01.395Z,59.02
2022-12-18T13:28:54.720Z,56.04
2022-12-18T13:32:10.116Z,55.46
2022-12-18T13:34:38.383Z,58.37
2022-12-18T13:37:55.536Z,59.77
2022-12-18T13:40:58.287Z,58.02
2022-12-18T13:43:32.995Z,59.45
2022-12-18T13:46:22.247Z,58.55
2022-12-18T13:48:57.635Z,59.17
2022-12-18T13:51:26.999Z,60.71
2022-12-18T13:53:57.115Z,58.80
2022-12-18T13:56:28.554Z,58.66
2022-12-18T13:59:25.311Z,55.79
2022-12-18T14:01:55.878Z,55.91
2022-12-18T14:04:27.674Z,59.06
2022-12-18T14:06:59.783Z,57.96
2022-12-18T14:09:30.923Z,56.07
2022-12-18T14:12:19.338Z,56.52
2022-12-18T14:14:49.465Z,56.27
2022-12-18T14:17:21.355Z,58.26
2022-12-18T14:19:52.035Z,56.87
2022-12-18T14:22:22.242Z,58.50
2022-12-18T14:25:06.513Z,58.29
2022-12-18T14:27:43.275Z,58.46
2022-12-18T14:30:26.754Z,57.88
2022-12-18T14:33:02.551Z,58.34
2022-12-18T14:35:30.461Z,58.33
2022-12-18T14:38:22.437Z,57.56
2022-12-18T14:40:55.488Z,57.76
2022-12-18T14:43:24.858Z,57.65
2022-12-18T14:45:53.369Z,58.77
2022-12-18T14:48:24.103Z,57.86
2022-12-18T14:51:01.088Z,56.89
2022-12-18T14:53:37.547Z,55.45
2022-12-18T14:56:16.059Z,58.56
2022-12-18T14:58:49.356Z,58.53
2022-12-18T15:01:25.786Z,59.25
2022-12-18T15:03:54.841Z,57.40
2022-12-18T15:06:32.596Z,59.45
2022-12-18T15:09:01.649Z,59.33
2022-12-18T15:11:31.633Z,60.13
2022-12-18T15:14:01.722Z,58.36
2022-12-18T15:16:29.511Z,58.04
2022-12-18T15:18:57.205Z,60.64
2022-12-18T15:21:25.661Z,56.09
2022-12-18T15:23:54.518Z,58.59
2022-12-18T15:26:23.664Z,60.67
2022-12-18T15:28:53.463Z,56.92
2022-12-18T15:31:30.362Z,57.26
2022-12-18T15:34:22.295Z,55.70
2022-12-18T15:36:51.852Z,58.06
2022-12-18T15:39:19.491Z,56.14
2022-12-18T15:42:01.194Z,59.36
2022-12-18T15:44:29.217Z,59.08
2022-12-18T15:46:59.990Z,59.16
2022-12-18T15:49:27.731Z,56.62
2022-12-18T15:51:58.480Z,58.80
2022-12-18T15:54:40.133Z,59.28
2022-12-18T15:57:25.378Z,58.12
2022-12-18T15:59:55.023Z,58.61
2022-12-18T16:02:25.637Z,59.03
2022-12-18T16:04:54.891Z,59.72
2022-12-18T16:07:25.436Z,60.02
2022-12-18T16:09:53.817Z,58.32
2022-12-18T16:12:24.291Z,60.11
2022-12-18T16:14:52.165Z,61.28
2022-12-18T16:17:20.400Z,62.09
2022-12-18T16:19:49.427Z,61.26
2022-12-18T16:22:22.962Z,61.36
2022-12-18T16:24:51.064Z,62.06
2022-12-18T16:27:19.071Z,62.44
2022-12-18T16:29:47.180Z,63.31
2022-12-18T16:32:16.769Z,62.57
2022-12-18T16:34:45.443Z,61.97
2022-12-18T16:37:16.272Z,63.01
2022-12-18T16:39:44.449Z,63.31
2022-12-18T16:42:15.404Z,63.13
2022-12-18T16:44:43.874Z,63.33
2022-12-18T16:47:14.872Z,63.33
2022-12-18T16:49:45.323Z,63.56
2022-12-18T16:52:14.963Z,64.27
2022-12-18T16:54:42.785Z,64.49
2022-12-18T16:57:11.244Z,65.61
2022-12-18T16:59:38.921Z,66.80
2022-12-18T17:02:06.822Z,66.90
2022-12-18T17:04:34.687Z,66.13
2022-12-18T17:07:02.296Z,66.32
2022-12-18T17:09:31.331Z,67.18
2022-12-18T17:12:04.000Z,67.21
2022-12-18T17:14:33.411Z,67.55
2022-12-18T17:19:49.436Z,67.60
2022-12-18T17:22:17.057Z,68.26
2022-12-18T17:24:47.158Z,67.91
2022-12-18T17:27:14.939Z,68.68
2022-12-18T17:29:47.215Z,68.79
2022-12-18T17:32:16.162Z,68.46
2022-12-18T17:34:44.002Z,70.02
2022-12-18T17:37:11.798Z,68.58
2022-12-18T17:39:39.840Z,69.47
2022-12-18T17:42:10.927Z,69.52
2022-12-18T17:44:43.060Z,69.42
2022-12-18T17:47:12.243Z,69.80
2022-12-18T17:49:40.213Z,70.75
2022-12-18T17:52:08.053Z,70.92
2022-12-18T17:54:39.344Z,71.14
2022-12-18T17:57:08.469Z,70.78
2022-12-18T17:59:36.179Z,69.91
2022-12-18T18:02:03.975Z,70.13
2022-12-18T18:04:32.384Z,70.44
2022-12-18T18:07:00.018Z,69.57
2022-12-18T18:09:28.473Z,68.98
2022-12-18T18:12:13.465Z,70.14
2022-12-18T18:14:42.769Z,69.25
2022-12-18T18:17:10.468Z,69.00
2022-12-18T18:19:38.126Z,69.88
2022-12-18T18:22:07.351Z,68.58
2022-12-18T18:24:35.410Z,70.03
2022-12-18T18:27:03.076Z,68.85
2022-12-18T18:29:31.363Z,69.49
2022-12-18T18:32:00.706Z,69.96
2022-12-18T18:34:30.280Z,69.53
2022-12-18T18:37:01.160Z,69.17
2022-12-18T18:39:29.036Z,68.09
2022-12-18T18:41:56.651Z,68.98
2022-12-18T18:44:26.088Z,69.80
2022-12-18T18:46:55.904Z,69.19
2022-12-18T18:49:27.344Z,69.88
2022-12-18T18:51:55.971Z,69.64
2022-12-18T18:54:23.850Z,69.34
2022-12-18T18:59:39.191Z,69.34
2022-12-18T19:02:07.490Z,69.72
2022-12-18T19:04:38.471Z,69.79
2022-12-18T19:07:15.028Z,68.31
2022-12-18T19:09:54.031Z,69.81
2022-12-18T19:12:39.908Z,69.69
2022-12-18T19:15:08.829Z,68.83
2022-12-18T19:17:37.386Z,69.58
2022-12-18T19:20:08.119Z,70.18
2022-12-18T19:22:38.127Z,70.34
2022-12-18T19:25:06.510Z,70.45
2022-12-18T19:27:36.456Z,69.98
2022-12-18T19:30:04.737Z,69.42
2022-12-18T19:32:32.496Z,70.16
2022-12-18T19:35:00.218Z,69.42
2022-12-18T19:37:29.612Z,69.68
2022-12-18T19:39:57.375Z,68.97
2022-12-18T19:42:29.415Z,69.41
2022-12-18T19:45:01.182Z,69.81
2022-12-18T19:47:28.765Z,69.36
2022-12-18T19:49:56.391Z,69.59
2022-12-18T19:52:24.123Z,69.17
2022-12-18T19:54:53.568Z,68.54
2022-12-18T19:57:21.347Z,69.27
2022-12-18T19:59:48.964Z,70.06
2022-12-18T20:02:17.530Z,70.05
2022-12-18T20:04:45.364Z,69.18
2022-12-18T20:07:13.079Z,69.17
2022-12-18T20:09:40.798Z,68.91
2022-12-18T20:12:10.181Z,69.15
2022-12-18T20:14:37.984Z,67.74
2022-12-18T20:17:05.766Z,68.88
2022-12-18T20:19:34.156Z,68.29
2022-12-18T20:22:02.470Z,68.97
2022-12-18T20:24:30.193Z,68.04
2022-12-18T20:26:57.815Z,68.22
2022-12-18T20:29:27.153Z,66.64
2022-12-18T20:31:54.847Z,68.07
2022-12-18T20:34:22.669Z,68.71
2022-12-18T20:36:50.556Z,69.12
2022-12-18T20:39:19.200Z,69.31
2022-12-18T20:41:47.954Z,68.26
2022-12-18T20:44:22.349Z,69.47
2022-12-18T20:46:53.836Z,68.80
2022-12-18T20:49:21.572Z,69.75
2022-12-18T20:51:51.700Z,70.57
2022-12-18T20:54:23.490Z,70.40
2022-12-18T20:56:51.268Z,71.60
2022-12-18T20:59:19.622Z,72.37
2022-12-18T21:01:48.972Z,72.33
2022-12-18T21:04:19.223Z,72.41
2022-12-18T21:06:52.071Z,73.14
2022-12-18T21:09:22.005Z,74.15
2022-12-18T21:12:07.803Z,75.63
2022-12-18T21:14:37.340Z,77.04
2022-12-18T21:17:05.117Z,77.57
2022-12-18T21:19:34.220Z,78.03
2022-12-18T21:22:02.389Z,78.73
2022-12-18T21:24:32.533Z,79.16
2022-12-18T21:27:03.776Z,79.43
2022-12-18T21:29:31.467Z,80.80
2022-12-18T21:31:59.247Z,81.21
2022-12-18T21:34:28.854Z,81.49
2022-12-18T21:36:59.394Z,81.88
2022-12-18T21:39:28.905Z,81.50
2022-12-18T21:42:14.568Z,80.64
2022-12-18T21:44:42.684Z,80.95
2022-12-18T21:47:22.239Z,81.96
2022-12-18T21:49:51.485Z,81.35
2022-12-18T21:52:21.625Z,79.98
2022-12-18T21:55:06.221Z,80.92
2022-12-18T21:57:36.639Z,80.22
2022-12-18T22:00:05.614Z,81.08
2022-12-18T22:02:33.301Z,80.98
2022-12-18T22:05:01.081Z,81.18
2022-12-18T22:07:30.212Z,80.69
2022-12-18T22:09:57.923Z,81.08
2022-12-18T22:12:43.982Z,80.90
2022-12-18T22:15:20.293Z,81.04
2022-12-18T22:17:50.424Z,82.19
2022-12-18T22:20:18.422Z,81.45
2022-12-18T22:22:51.545Z,81.65
2022-12-18T22:25:19.518Z,82.29
2022-12-18T22:28:07.140Z,82.79
2022-12-18T22:30:33.850Z,83.29
2022-12-18T22:33:01.495Z,83.59
2022-12-18T22:35:29.203Z,83.43
2022-12-18T22:37:59.483Z,83.86
2022-12-18T22:40:27.828Z,84.08
2022-12-18T22:42:56.004Z,84.37
2022-12-18T22:45:23.822Z,83.31
2022-12-18T22:47:52.048Z,83.94
2022-12-18T22:50:19.931Z,84.62
2022-12-18T22:52:47.556Z,84.38
2022-12-18T22:55:16.781Z,84.25
2022-12-18T22:57:48.577Z,84.79
2022-12-18T23:00:17.662Z,84.51
2022-12-18T23:02:57.645Z,84.78
2022-12-18T23:05:28.280Z,84.70
2022-12-18T23:07:55.956Z,84.83
2022-12-18T23:10:25.034Z,85.18
2022-12-18T23:12:52.669Z,85.46
2022-12-18T23:15:23.526Z,86.07
2022-12-18T23:17:55.729Z,86.43
2022-12-18T23:20:23.446Z,86.42
2022-12-18T23:22:51.168Z,86.89
2022-12-18T23:25:18.884Z,87.80
2022-12-18T23:27:47.899Z,87.58
2022-12-18T23:30:15.709Z,86.97
2022-12-18T23:32:43.425Z,87.53
2022-12-18T23:35:11.779Z,87.97
2022-12-18T23:37:59.313Z,87.65
2022-12-18T23:40:27.317Z,87.78
2022-12-18T23:42:56.393Z,88.08
2022-12-18T23:45:24.169Z,88.33
2022-12-18T23:47:51.862Z,88.86
2022-12-18T23:50:19.585Z,89.02
2022-12-18T23:52:55.439Z,88.57
